sensor_id;sensor_type;location;lat;lon;timestamp;pressure;altitude;pressure_sealevel;temperature;humidity
49030;BME280;43337;52.070;4.508;2024-01-10T00:02:07;103354.59;;;-4.94;100.00
49030;BME280;43337;52.070;4.508;2024-01-10T00:04:32;103367.72;;;-4.89;100.00
49030;BME280;43337;52.070;4.508;2024-01-10T00:06:58;103399.97;;;-4.66;100.00
49030;BME280;43337;52.070;4.508;2024-01-10T00:09:23;103360.00;;;-4.89;100.00
49030;BME280;43337;52.070;4.508;2024-01-10T00:11:48;103397.19;;;-4.69;100.00
49030;BME280;43337;52.070;4.508;2024-01-10T00:14:14;103362.69;;;-4.87;100.00
49030;BME280;43337;52.070;4.508;2024-01-10T00:16:45;103365.94;;;-4.90;100.00
49030;BME280;43337;52.070;4.508;2024-01-10T00:19:10;103338.53;;;-5.04;100.00
49030;BME280;43337;52.070;4.508;2024-01-10T00:21:37;103375.81;;;-4.83;100.00
49030;BME280;43337;52.070;4.508;2024-01-10T00:24:03;103381.84;;;-4.82;100.00
49030;BME280;43337;52.070;4.508;2024-01-10T00:26:31;103389.94;;;-4.76;100.00
49030;BME280;43337;52.070;4.508;2024-01-10T00:28:57;103333.19;;;-5.07;100.00
49030;BME280;43337;52.070;4.508;2024-01-10T00:31:22;103340.00;;;-5.08;100.00
49030;BME280;43337;52.070;4.508;2024-01-10T00:33:48;103394.75;;;-4.81;100.00
49030;BME280;43337;52.070;4.508;2024-01-10T00:36:13;103307.47;;;-5.22;100.00
49030;BME280;43337;52.070;4.508;2024-01-10T00:38:39;103376.00;;;-4.80;100.00
49030;BME280;43337;52.070;4.508;2024-01-10T00:41:05;103339.53;;;-5.02;100.00
49030;BME280;43337;52.070;4.508;2024-01-10T00:43:32;103299.84;;;-5.21;100.00
49030;BME280;43337;52.070;4.508;2024-01-10T00:45:57;103332.31;;;-5.08;100.00
49030;BME280;43337;52.070;4.508;2024-01-10T00:48:25;103366.94;;;-4.88;100.00
49030;BME280;43337;52.070;4.508;2024-01-10T00:50:51;103329.94;;;-5.05;100.00
49030;BME280;43337;52.070;4.508;2024-01-10T00:53:16;103328.84;;;-5.08;100.00
49030;BME280;43337;52.070;4.508;2024-01-10T00:55:45;103377.78;;;-4.79;100.00
49030;BME280;43337;52.070;4.508;2024-01-10T00:58:10;103376.09;;;-4.78;100.00
49030;BME280;43337;52.070;4.508;2024-01-10T01:00:36;103371.84;;;-4.78;100.00
49030;BME280;43337;52.070;4.508;2024-01-10T01:03:04;103312.28;;;-5.13;100.00
49030;BME280;43337;52.070;4.508;2024-01-10T01:05:32;103318.09;;;-5.16;100.00
49030;BME280;43337;52.070;4.508;2024-01-10T01:07:58;103316.44;;;-5.16;100.00
49030;BME280;43337;52.070;4.508;2024-01-10T01:10:23;103358.44;;;-4.87;100.00
49030;BME280;43337;52.070;4.508;2024-01-10T01:12:49;103366.50;;;-4.81;100.00
49030;BME280;43337;52.070;4.508;2024-01-10T01:15:14;103355.88;;;-4.87;100.00
49030;BME280;43337;52.070;4.508;2024-01-10T01:17:39;103361.97;;;-4.85;100.00
49030;BME280;43337;52.070;4.508;2024-01-10T01:20:08;103364.66;;;-4.83;100.00
49030;BME280;43337;52.070;4.508;2024-01-10T01:22:34;103313.16;;;-5.13;100.00
49030;BME280;43337;52.070;4.508;2024-01-10T01:24:59;103361.97;;;-4.85;100.00
49030;BME280;43337;52.070;4.508;2024-01-10T01:27:24;103345.22;;;-4.93;100.00
49030;BME280;43337;52.070;4.508;2024-01-10T01:29:54;103344.13;;;-4.97;100.00
49030;BME280;43337;52.070;4.508;2024-01-10T01:32:19;103315.75;;;-5.13;100.00
49030;BME280;43337;52.070;4.508;2024-01-10T01:34:44;103345.72;;;-4.99;100.00
49030;BME280;43337;52.070;4.508;2024-01-10T01:37:10;103364.06;;;-4.93;100.00
49030;BME280;43337;52.070;4.508;2024-01-10T01:39:35;103353.53;;;-4.97;100.00
49030;BME280;43337;52.070;4.508;2024-01-10T01:42:04;103313.56;;;-5.20;100.00
49030;BME280;43337;52.070;4.508;2024-01-10T01:44:29;103363.00;;;-4.96;100.00
49030;BME280;43337;52.070;4.508;2024-01-10T01:46:57;103344.25;;;-5.08;100.00
49030;BME280;43337;52.070;4.508;2024-01-10T01:49:24;103347.81;;;-5.06;100.00
49030;BME280;43337;52.070;4.508;2024-01-10T01:51:51;103349.19;;;-5.11;100.00
49030;BME280;43337;52.070;4.508;2024-01-10T01:54:18;103329.97;;;-5.18;100.00
49030;BME280;43337;52.070;4.508;2024-01-10T01:56:45;103366.88;;;-5.03;100.00
49030;BME280;43337;52.070;4.508;2024-01-10T01:59:11;103315.38;;;-5.32;100.00
49030;BME280;43337;52.070;4.508;2024-01-10T02:01:36;103362.34;;;-5.07;100.00
49030;BME280;43337;52.070;4.508;2024-01-10T02:04:02;103317.88;;;-5.34;100.00
49030;BME280;43337;52.070;4.508;2024-01-10T02:06:29;103344.06;;;-5.11;100.00
49030;BME280;43337;52.070;4.508;2024-01-10T02:08:56;103334.72;;;-5.24;100.00
49030;BME280;43337;52.070;4.508;2024-01-10T02:11:22;103355.81;;;-5.15;100.00
49030;BME280;43337;52.070;4.508;2024-01-10T02:13:48;103358.13;;;-5.20;100.00
49030;BME280;43337;52.070;4.508;2024-01-10T02:16:14;103342.06;;;-5.30;100.00
49030;BME280;43337;52.070;4.508;2024-01-10T02:18:40;103351.13;;;-5.22;100.00
49030;BME280;43337;52.070;4.508;2024-01-10T02:21:05;103347.69;;;-5.23;100.00
49030;BME280;43337;52.070;4.508;2024-01-10T02:23:31;103343.72;;;-5.31;100.00
49030;BME280;43337;52.070;4.508;2024-01-10T02:25:58;103301.59;;;-5.48;100.00
49030;BME280;43337;52.070;4.508;2024-01-10T02:28:23;103336.81;;;-5.32;100.00
49030;BME280;43337;52.070;4.508;2024-01-10T02:30:51;103339.66;;;-5.27;100.00
49030;BME280;43337;52.070;4.508;2024-01-10T02:33:16;103336.13;;;-5.29;100.00
49030;BME280;43337;52.070;4.508;2024-01-10T02:35:42;103293.69;;;-5.51;100.00
49030;BME280;43337;52.070;4.508;2024-01-10T02:38:09;103329.22;;;-5.30;100.00
49030;BME280;43337;52.070;4.508;2024-01-10T02:40:36;103293.09;;;-5.47;100.00
49030;BME280;43337;52.070;4.508;2024-01-10T02:43:01;103322.41;;;-5.30;100.00
49030;BME280;43337;52.070;4.508;2024-01-10T02:45:27;103328.72;;;-5.25;100.00
49030;BME280;43337;52.070;4.508;2024-01-10T02:47:54;103291.72;;;-5.42;100.00
49030;BME280;43337;52.070;4.508;2024-01-10T02:50:20;103318.63;;;-5.22;100.00
49030;BME280;43337;52.070;4.508;2024-01-10T02:52:45;103300.06;;;-5.31;100.00
49030;BME280;43337;52.070;4.508;2024-01-10T02:55:10;103298.41;;;-5.30;100.00
49030;BME280;43337;52.070;4.508;2024-01-10T02:57:36;103323.78;;;-5.22;100.00
49030;BME280;43337;52.070;4.508;2024-01-10T03:00:01;103305.03;;;-5.34;100.00
49030;BME280;43337;52.070;4.508;2024-01-10T03:02:29;103268.63;;;-5.55;100.00
49030;BME280;43337;52.070;4.508;2024-01-10T03:04:54;103292.69;;;-5.40;100.00
49030;BME280;43337;52.070;4.508;2024-01-10T03:07:20;103310.25;;;-5.32;100.00
49030;BME280;43337;52.070;4.508;2024-01-10T03:09:45;103289.16;;;-5.42;100.00
49030;BME280;43337;52.070;4.508;2024-01-10T03:12:11;103280.97;;;-5.49;100.00
49030;BME280;43337;52.070;4.508;2024-01-10T03:14:37;103315.59;;;-5.29;100.00
49030;BME280;43337;52.070;4.508;2024-01-10T03:17:02;103309.66;;;-5.28;100.00
49030;BME280;43337;52.070;4.508;2024-01-10T03:19:28;103315.78;;;-5.26;100.00
49030;BME280;43337;52.070;4.508;2024-01-10T03:21:53;103315.59;;;-5.29;100.00
49030;BME280;43337;52.070;4.508;2024-01-10T03:24:19;103251.97;;;-5.61;100.00
49030;BME280;43337;52.070;4.508;2024-01-10T03:26:44;103306.63;;;-5.36;100.00
49030;BME280;43337;52.070;4.508;2024-01-10T03:29:09;103294.56;;;-5.37;100.00
49030;BME280;43337;52.070;4.508;2024-01-10T03:31:35;103282.22;;;-5.43;100.00
49030;BME280;43337;52.070;4.508;2024-01-10T03:34:00;103295.66;;;-5.33;100.00
49030;BME280;43337;52.070;4.508;2024-01-10T03:36:26;103266.28;;;-5.52;100.00
49030;BME280;43337;52.070;4.508;2024-01-10T03:38:54;103280.53;;;-5.42;100.00
49030;BME280;43337;52.070;4.508;2024-01-10T03:41:20;103300.59;;;-5.36;100.00
49030;BME280;43337;52.070;4.508;2024-01-10T03:43:46;103295.38;;;-5.38;100.00
49030;BME280;43337;52.070;4.508;2024-01-10T03:46:12;103251.97;;;-5.61;100.00
49030;BME280;43337;52.070;4.508;2024-01-10T03:48:38;103296.06;;;-5.41;100.00
49030;BME280;43337;52.070;4.508;2024-01-10T03:51:12;103295.88;;;-5.44;100.00
49030;BME280;43337;52.070;4.508;2024-01-10T03:53:38;103256.63;;;-5.69;100.00
49030;BME280;43337;52.070;4.508;2024-01-10T03:56:07;103281.75;;;-5.50;100.00
49030;BME280;43337;52.070;4.508;2024-01-10T03:58:33;103272.41;;;-5.63;100.00
49030;BME280;43337;52.070;4.508;2024-01-10T04:00:58;103264.44;;;-5.68;100.00
49030;BME280;43337;52.070;4.508;2024-01-10T04:03:23;103287.59;;;-5.53;100.00
49030;BME280;43337;52.070;4.508;2024-01-10T04:05:48;103265.59;;;-5.62;100.00
49030;BME280;43337;52.070;4.508;2024-01-10T04:08:14;103288.38;;;-5.54;100.00
49030;BME280;43337;52.070;4.508;2024-01-10T04:10:39;103269.94;;;-5.61;100.00
49030;BME280;43337;52.070;4.508;2024-01-10T04:13:05;103261.16;;;-5.65;100.00
49030;BME280;43337;52.070;4.508;2024-01-10T04:15:30;103273.22;;;-5.64;100.00
49030;BME280;43337;52.070;4.508;2024-01-10T04:17:55;103281.59;;;-5.53;100.00
49030;BME280;43337;52.070;4.508;2024-01-10T04:20:21;103270.03;;;-5.60;100.00
49030;BME280;43337;52.070;4.508;2024-01-10T04:22:46;103279.78;;;-5.54;100.00
49030;BME280;43337;52.070;4.508;2024-01-10T04:25:12;103279.72;;;-5.56;100.00
49030;BME280;43337;52.070;4.508;2024-01-10T04:27:38;103237.09;;;-5.80;100.00
49030;BME280;43337;52.070;4.508;2024-01-10T04:30:05;103235.72;;;-5.75;100.00
49030;BME280;43337;52.070;4.508;2024-01-10T04:32:30;103258.69;;;-5.63;100.00
49030;BME280;43337;52.070;4.508;2024-01-10T04:34:56;103249.91;;;-5.67;100.00
49030;BME280;43337;52.070;4.508;2024-01-10T04:37:24;103250.72;;;-5.68;100.00
49030;BME280;43337;52.070;4.508;2024-01-10T04:39:51;103249.41;;;-5.61;100.00
49030;BME280;43337;52.070;4.508;2024-01-10T04:42:16;103259.78;;;-5.60;100.00
49030;BME280;43337;52.070;4.508;2024-01-10T04:44:41;103232.34;;;-5.74;100.00
49030;BME280;43337;52.070;4.508;2024-01-10T04:47:07;103246.56;;;-5.66;100.00
49030;BME280;43337;52.070;4.508;2024-01-10T04:49:33;103239.16;;;-5.75;100.00
49030;BME280;43337;52.070;4.508;2024-01-10T04:51:59;103258.59;;;-5.65;100.00
49030;BME280;43337;52.070;4.508;2024-01-10T04:54:26;103237.50;;;-5.74;100.00
49030;BME280;43337;52.070;4.508;2024-01-10T04:56:55;103251.47;;;-5.69;100.00
49030;BME280;43337;52.070;4.508;2024-01-10T04:59:20;103262.84;;;-5.66;100.00
49030;BME280;43337;52.070;4.508;2024-01-10T05:01:46;103250.41;;;-5.73;100.00
49030;BME280;43337;52.070;4.508;2024-01-10T05:04:11;103268.06;;;-5.64;100.00
49030;BME280;43337;52.070;4.508;2024-01-10T05:06:37;103228.03;;;-5.89;100.00
49030;BME280;43337;52.070;4.508;2024-01-10T05:09:02;103192.00;;;-6.05;100.00
49030;BME280;43337;52.070;4.508;2024-01-10T05:11:29;103226.25;;;-5.90;100.00
49030;BME280;43337;52.070;4.508;2024-01-10T05:13:55;103245.09;;;-5.76;100.00
49030;BME280;43337;52.070;4.508;2024-01-10T05:16:20;103212.41;;;-5.93;100.00
49030;BME280;43337;52.070;4.508;2024-01-10T05:18:46;103261.59;;;-5.72;100.00
49030;BME280;43337;52.070;4.508;2024-01-10T05:21:12;103242.53;;;-5.76;100.00
49030;BME280;43337;52.070;4.508;2024-01-10T05:23:37;103257.41;;;-5.70;100.00
49030;BME280;43337;52.070;4.508;2024-01-10T05:26:04;103247.56;;;-5.77;100.00
49030;BME280;43337;52.070;4.508;2024-01-10T05:28:30;103244.03;;;-5.79;100.00
49030;BME280;43337;52.070;4.508;2024-01-10T05:30:56;103193.41;;;-6.10;100.00
49030;BME280;43337;52.070;4.508;2024-01-10T05:33:22;103247.47;;;-5.79;100.00
49030;BME280;43337;52.070;4.508;2024-01-10T05:35:50;103251.13;;;-5.75;100.00
49030;BME280;43337;52.070;4.508;2024-01-10T05:38:16;103241.34;;;-5.81;100.00
49030;BME280;43337;52.070;4.508;2024-01-10T05:40:43;103253.78;;;-5.74;100.00
49030;BME280;43337;52.070;4.508;2024-01-10T05:43:09;103249.53;;;-5.73;100.00
49030;BME280;43337;52.070;4.508;2024-01-10T05:45:38;103230.78;;;-5.85;100.00
49030;BME280;43337;52.070;4.508;2024-01-10T05:48:03;103249.53;;;-5.73;100.00
49030;BME280;43337;52.070;4.508;2024-01-10T05:50:29;103243.63;;;-5.72;100.00
49030;BME280;43337;52.070;4.508;2024-01-10T05:52:55;103231.97;;;-5.80;100.00
49030;BME280;43337;52.070;4.508;2024-01-10T05:55:20;103233.84;;;-5.78;100.00
49030;BME280;43337;52.070;4.508;2024-01-10T05:57:46;103234.66;;;-5.79;100.00
49030;BME280;43337;52.070;4.508;2024-01-10T06:00:12;103239.09;;;-5.76;100.00
49030;BME280;43337;52.070;4.508;2024-01-10T06:02:41;103254.84;;;-5.70;100.00
49030;BME280;43337;52.070;4.508;2024-01-10T06:05:08;103257.41;;;-5.70;100.00
49030;BME280;43337;52.070;4.508;2024-01-10T06:07:34;103233.66;;;-5.81;100.00
49030;BME280;43337;52.070;4.508;2024-01-10T06:10:00;103228.03;;;-5.75;100.00
49030;BME280;43337;52.070;4.508;2024-01-10T06:12:26;103241.34;;;-5.68;100.00
49030;BME280;43337;52.070;4.508;2024-01-10T06:14:55;103239.47;;;-5.70;100.00
49030;BME280;43337;52.070;4.508;2024-01-10T06:17:21;103209.19;;;-5.89;100.00
49030;BME280;43337;52.070;4.508;2024-01-10T06:19:46;103210.19;;;-5.87;100.00
49030;BME280;43337;52.070;4.508;2024-01-10T06:22:12;103242.81;;;-5.71;100.00
49030;BME280;43337;52.070;4.508;2024-01-10T06:24:37;103236.22;;;-5.68;100.00
49030;BME280;43337;52.070;4.508;2024-01-10T06:27:03;103182.91;;;-6.00;100.00
49030;BME280;43337;52.070;4.508;2024-01-10T06:29:29;103239.47;;;-5.70;100.00
49030;BME280;43337;52.070;4.508;2024-01-10T06:31:55;103242.13;;;-5.69;100.00
49030;BME280;43337;52.070;4.508;2024-01-10T06:34:22;103214.22;;;-5.77;100.00
49030;BME280;43337;52.070;4.508;2024-01-10T06:36:50;103236.00;;;-5.71;100.00
49030;BME280;43337;52.070;4.508;2024-01-10T06:39:16;103234.94;;;-5.74;100.00
49030;BME280;43337;52.070;4.508;2024-01-10T06:41:46;103236.41;;;-5.78;100.00
49030;BME280;43337;52.070;4.508;2024-01-10T06:44:11;103232.16;;;-5.77;100.00
49030;BME280;43337;52.070;4.508;2024-01-10T06:46:36;103242.63;;;-5.74;100.00
49030;BME280;43337;52.070;4.508;2024-01-10T06:49:02;103195.44;;;-6.04;100.00
49030;BME280;43337;52.070;4.508;2024-01-10T06:51:27;103239.84;;;-5.77;100.00
49030;BME280;43337;52.070;4.508;2024-01-10T06:53:53;103239.09;;;-5.76;100.00
49030;BME280;43337;52.070;4.508;2024-01-10T06:56:25;103247.75;;;-5.74;100.00
49030;BME280;43337;52.070;4.508;2024-01-10T06:58:57;103224.97;;;-5.83;100.00
49030;BME280;43337;52.070;4.508;2024-01-10T07:01:22;103196.63;;;-5.99;100.00
49030;BME280;43337;52.070;4.508;2024-01-10T07:03:54;103195.56;;;-6.03;100.00
49030;BME280;43337;52.070;4.508;2024-01-10T07:06:24;103205.66;;;-5.91;100.00
49030;BME280;43337;52.070;4.508;2024-01-10T07:08:50;103239.16;;;-5.75;100.00
49030;BME280;43337;52.070;4.508;2024-01-10T07:11:16;103229.13;;;-5.85;100.00
49030;BME280;43337;52.070;4.508;2024-01-10T07:13:42;103200.50;;;-6.06;100.00
49030;BME280;43337;52.070;4.508;2024-01-10T07:16:08;103241.53;;;-5.78;100.00
49030;BME280;43337;52.070;4.508;2024-01-10T07:18:34;103234.69;;;-5.92;100.00
49030;BME280;43337;52.070;4.508;2024-01-10T07:20:59;103261.19;;;-5.78;100.00
49030;BME280;43337;52.070;4.508;2024-01-10T07:23:25;103247.00;;;-5.86;100.00
49030;BME280;43337;52.070;4.508;2024-01-10T07:25:50;103245.38;;;-5.84;100.00
49030;BME280;43337;52.070;4.508;2024-01-10T07:28:16;103240.09;;;-5.87;100.00
49030;BME280;43337;52.070;4.508;2024-01-10T07:30:45;103224.06;;;-5.98;100.00
49030;BME280;43337;52.070;4.508;2024-01-10T07:33:14;103209.94;;;-6.05;100.00
49030;BME280;43337;52.070;4.508;2024-01-10T07:35:41;103185.69;;;-6.23;100.00
49030;BME280;43337;52.070;4.508;2024-01-10T07:38:07;103202.56;;;-6.13;100.00
49030;BME280;43337;52.070;4.508;2024-01-10T07:40:37;103208.06;;;-6.07;100.00
49030;BME280;43337;52.070;4.508;2024-01-10T07:43:02;103256.25;;;-5.75;100.00
49030;BME280;43337;52.070;4.508;2024-01-10T07:45:37;103215.34;;;-6.00;100.00
49030;BME280;43337;52.070;4.508;2024-01-10T07:48:03;103255.16;;;-5.79;100.00
49030;BME280;43337;52.070;4.508;2024-01-10T07:50:31;103251.31;;;-5.85;100.00
49030;BME280;43337;52.070;4.508;2024-01-10T07:52:57;103203.25;;;-6.16;100.00
49030;BME280;43337;52.070;4.508;2024-01-10T07:55:22;103248.22;;;-5.95;100.00
49030;BME280;43337;52.070;4.508;2024-01-10T07:57:50;103265.03;;;-5.85;100.00
49030;BME280;43337;52.070;4.508;2024-01-10T08:00:17;103271.34;;;-5.80;100.00
49030;BME280;43337;52.070;4.508;2024-01-10T08:02:45;103228.91;;;-6.03;100.00
49030;BME280;43337;52.070;4.508;2024-01-10T08:05:10;103253.78;;;-5.87;100.00
49030;BME280;43337;52.070;4.508;2024-01-10T08:07:39;103213.78;;;-6.11;100.00
49030;BME280;43337;52.070;4.508;2024-01-10T08:10:08;103262.56;;;-5.83;100.00
49030;BME280;43337;52.070;4.508;2024-01-10T08:12:37;103236.75;;;-6.00;100.00
49030;BME280;43337;52.070;4.508;2024-01-10T08:15:05;103279.06;;;-5.80;100.00
49030;BME280;43337;52.070;4.508;2024-01-10T08:17:31;103270.63;;;-5.77;100.00
49030;BME280;43337;52.070;4.508;2024-01-10T08:19:58;103274.22;;;-5.75;100.00
49030;BME280;43337;52.070;4.508;2024-01-10T08:22:23;103276.84;;;-5.74;100.00
49030;BME280;43337;52.070;4.508;2024-01-10T08:24:48;103256.06;;;-5.78;100.00
49030;BME280;43337;52.070;4.508;2024-01-10T08:27:15;103264.31;;;-5.69;100.00
49030;BME280;43337;52.070;4.508;2024-01-10T08:29:44;103232.81;;;-5.95;100.00
49030;BME280;43337;52.070;4.508;2024-01-10T08:32:10;103269.16;;;-5.74;100.00
49030;BME280;43337;52.070;4.508;2024-01-10T08:34:36;103272.22;;;-5.66;100.00
49030;BME280;43337;52.070;4.508;2024-01-10T08:37:01;103277.47;;;-5.65;100.00
49030;BME280;43337;52.070;4.508;2024-01-10T08:39:26;103263.44;;;-5.70;100.00
49030;BME280;43337;52.070;4.508;2024-01-10T08:41:53;103240.75;;;-5.77;100.00
49030;BME280;43337;52.070;4.508;2024-01-10T08:44:24;103232.75;;;-5.81;100.00
49030;BME280;43337;52.070;4.508;2024-01-10T08:46:49;103270.13;;;-5.58;100.00
49030;BME280;43337;52.070;4.508;2024-01-10T08:49:22;103262.53;;;-5.57;100.00
49030;BME280;43337;52.070;4.508;2024-01-10T08:51:50;103243.78;;;-5.69;100.00
49030;BME280;43337;52.070;4.508;2024-01-10T08:54:18;103199.06;;;-5.87;100.00
49030;BME280;43337;52.070;4.508;2024-01-10T08:56:50;103228.88;;;-5.61;100.00
49030;BME280;43337;52.070;4.508;2024-01-10T08:59:15;103257.63;;;-5.39;100.00
49030;BME280;43337;52.070;4.508;2024-01-10T09:01:41;103262.16;;;-5.35;100.00
49030;BME280;43337;52.070;4.508;2024-01-10T09:04:07;103247.66;;;-5.34;100.00
49030;BME280;43337;52.070;4.508;2024-01-10T09:06:32;103192.47;;;-5.56;100.00
49030;BME280;43337;52.070;4.508;2024-01-10T09:08:58;103251.88;;;-5.22;100.00
49030;BME280;43337;52.070;4.508;2024-01-10T09:11:23;103270.78;;;-5.06;100.00
49030;BME280;43337;52.070;4.508;2024-01-10T09:13:50;103252.06;;;-5.04;100.00
49030;BME280;43337;52.070;4.508;2024-01-10T09:16:16;103196.78;;;-5.27;100.00
49030;BME280;43337;52.070;4.508;2024-01-10T09:18:41;103177.91;;;-5.27;100.00
49030;BME280;43337;52.070;4.508;2024-01-10T09:21:07;103220.94;;;-4.95;100.00
49030;BME280;43337;52.070;4.508;2024-01-10T09:23:32;103241.78;;;-4.76;100.00
49030;BME280;43337;52.070;4.508;2024-01-10T09:26:02;103225.31;;;-4.79;100.00
49030;BME280;43337;52.070;4.508;2024-01-10T09:28:28;103201.19;;;-4.81;100.00
49030;BME280;43337;52.070;4.508;2024-01-10T09:30:54;103173.91;;;-4.94;100.00
49030;BME280;43337;52.070;4.508;2024-01-10T09:33:20;103229.28;;;-4.55;100.00
49030;BME280;43337;52.070;4.508;2024-01-10T09:35:47;103244.44;;;-4.45;100.00
49030;BME280;43337;52.070;4.508;2024-01-10T09:38:15;103254.31;;;-4.37;100.00
49030;BME280;43337;52.070;4.508;2024-01-10T09:40:42;103246.59;;;-4.37;100.00
49030;BME280;43337;52.070;4.508;2024-01-10T09:43:08;103265.16;;;-4.27;100.00
49030;BME280;43337;52.070;4.508;2024-01-10T09:45:43;103250.72;;;-4.25;100.00
49030;BME280;43337;52.070;4.508;2024-01-10T09:48:13;103237.88;;;-4.25;100.00
49030;BME280;43337;52.070;4.508;2024-01-10T09:50:39;103248.78;;;-4.14;100.00
49030;BME280;43337;52.070;4.508;2024-01-10T09:53:07;103243.34;;;-4.04;100.00
49030;BME280;43337;52.070;4.508;2024-01-10T09:55:36;103241.66;;;-4.03;100.00
49030;BME280;43337;52.070;4.508;2024-01-10T09:58:05;103241.81;;;-4.00;100.00
49030;BME280;43337;52.070;4.508;2024-01-10T10:00:33;103254.47;;;-3.88;100.00
49030;BME280;43337;52.070;4.508;2024-01-10T10:03:04;103254.03;;;-3.81;100.00
49030;BME280;43337;52.070;4.508;2024-01-10T10:05:34;103235.75;;;-3.86;100.00
49030;BME280;43337;52.070;4.508;2024-01-10T10:08:00;103227.22;;;-3.85;100.00
49030;BME280;43337;52.070;4.508;2024-01-10T10:10:25;103252.41;;;-3.64;100.00
49030;BME280;43337;52.070;4.508;2024-01-10T10:12:55;103214.47;;;-3.83;100.00
49030;BME280;43337;52.070;4.508;2024-01-10T10:15:24;103233.50;;;-3.65;100.00
49030;BME280;43337;52.070;4.508;2024-01-10T10:17:53;103232.34;;;-3.54;100.00
49030;BME280;43337;52.070;4.508;2024-01-10T10:20:21;103181.31;;;-3.77;100.00
49030;BME280;43337;52.070;4.508;2024-01-10T10:22:58;103209.81;;;-3.58;100.00
49030;BME280;43337;52.070;4.508;2024-01-10T10:25:32;103212.03;;;-3.49;100.00
49030;BME280;43337;52.070;4.508;2024-01-10T10:28:02;103226.66;;;-3.32;100.00
49030;BME280;43337;52.070;4.508;2024-01-10T10:30:29;103242.53;;;-3.24;100.00
49030;BME280;43337;52.070;4.508;2024-01-10T10:32:55;103196.09;;;-3.42;100.00
49030;BME280;43337;52.070;4.508;2024-01-10T10:35:21;103205.53;;;-3.26;100.00
49030;BME280;43337;52.070;4.508;2024-01-10T10:37:48;103227.97;;;-3.07;100.00
49030;BME280;43337;52.070;4.508;2024-01-10T10:40:15;103197.22;;;-3.21;100.00
49030;BME280;43337;52.070;4.508;2024-01-10T10:42:56;103231.25;;;-2.93;100.00
49030;BME280;43337;52.070;4.508;2024-01-10T10:45:22;103212.31;;;-2.94;100.00
49030;BME280;43337;52.070;4.508;2024-01-10T10:47:56;103229.06;;;-2.86;100.00
49030;BME280;43337;52.070;4.508;2024-01-10T10:50:23;103182.94;;;-2.98;100.00
49030;BME280;43337;52.070;4.508;2024-01-10T10:52:50;103192.97;;;-2.86;100.00
49030;BME280;43337;52.070;4.508;2024-01-10T10:55:16;103235.47;;;-2.61;100.00
49030;BME280;43337;52.070;4.508;2024-01-10T10:57:46;103222.00;;;-2.56;98.13
49030;BME280;43337;52.070;4.508;2024-01-10T11:00:19;103226.72;;;-2.47;97.26
49030;BME280;43337;52.070;4.508;2024-01-10T11:02:47;103187.22;;;-2.64;100.00
49030;BME280;43337;52.070;4.508;2024-01-10T11:05:13;103223.28;;;-2.30;100.00
49030;BME280;43337;52.070;4.508;2024-01-10T11:07:40;103218.50;;;-2.22;98.42
49030;BME280;43337;52.070;4.508;2024-01-10T11:10:12;103222.22;;;-2.15;100.00
49030;BME280;43337;52.070;4.508;2024-01-10T11:24:11;103206.44;;;-1.86;91.61
49030;BME280;43337;52.070;4.508;2024-01-10T11:26:39;103216.44;;;-1.74;96.22
49030;BME280;43337;52.070;4.508;2024-01-10T11:29:05;103186.66;;;-1.85;95.57
49030;BME280;43337;52.070;4.508;2024-01-10T11:31:36;103202.19;;;-1.66;95.27
49030;BME280;43337;52.070;4.508;2024-01-10T11:34:05;103219.00;;;-1.56;90.81
49030;BME280;43337;52.070;4.508;2024-01-10T11:36:38;103176.84;;;-1.75;85.55
49030;BME280;43337;52.070;4.508;2024-01-10T11:39:05;103190.25;;;-1.64;96.67
49030;BME280;43337;52.070;4.508;2024-01-10T11:41:36;103126.16;;;-1.92;100.00
49030;BME280;43337;52.070;4.508;2024-01-10T11:44:32;103201.47;;;-1.44;85.84
49030;BME280;43337;52.070;4.508;2024-01-10T11:46:59;103198.56;;;-1.32;98.58
49030;BME280;43337;52.070;4.508;2024-01-10T11:49:25;103118.13;;;-1.79;98.36
49030;BME280;43337;52.070;4.508;2024-01-10T11:51:57;103194.75;;;-1.21;100.00
49030;BME280;43337;52.070;4.508;2024-01-10T11:54:44;103186.16;;;-1.20;96.09
49030;BME280;43337;52.070;4.508;2024-01-10T11:57:19;103191.84;;;-1.08;93.00
49030;BME280;43337;52.070;4.508;2024-01-10T11:59:53;103154.03;;;-1.27;91.04
49030;BME280;43337;52.070;4.508;2024-01-10T12:02:20;103124.94;;;-1.42;83.99
49030;BME280;43337;52.070;4.508;2024-01-10T12:04:46;103154.22;;;-1.22;90.40
49030;BME280;43337;52.070;4.508;2024-01-10T12:07:13;103106.53;;;-1.50;89.73
49030;BME280;43337;52.070;4.508;2024-01-10T12:09:39;103160.47;;;-1.17;85.23
49030;BME280;43337;52.070;4.508;2024-01-10T12:12:07;103161.19;;;-1.19;90.90
49030;BME280;43337;52.070;4.508;2024-01-10T12:14:34;103183.63;;;-0.99;89.14
49030;BME280;43337;52.070;4.508;2024-01-10T12:17:03;103146.59;;;-1.19;93.01
49030;BME280;43337;52.070;4.508;2024-01-10T12:19:35;103191.53;;;-0.96;89.25
49030;BME280;43337;52.070;4.508;2024-01-10T12:22:03;103171.72;;;-0.95;92.38
49030;BME280;43337;52.070;4.508;2024-01-10T12:24:28;103124.41;;;-1.14;86.60
49030;BME280;43337;52.070;4.508;2024-01-10T12:26:55;103069.13;;;-1.38;91.13
49030;BME280;43337;52.070;4.508;2024-01-10T12:29:26;103084.13;;;-1.30;81.25
49030;BME280;43337;52.070;4.508;2024-01-10T12:31:52;103072.06;;;-1.29;82.32
49030;BME280;43337;52.070;4.508;2024-01-10T12:34:24;103133.00;;;-0.94;85.55
49030;BME280;43337;52.070;4.508;2024-01-10T12:36:54;103068.94;;;-1.22;93.02
49030;BME280;43337;52.070;4.508;2024-01-10T12:39:20;103077.00;;;-1.14;89.04
49030;BME280;43337;52.070;4.508;2024-01-10T12:41:47;103120.56;;;-0.82;85.66
49030;BME280;43337;52.070;4.508;2024-01-10T12:44:14;103070.38;;;-1.08;93.24
49030;BME280;43337;52.070;4.508;2024-01-10T12:46:59;103150.84;;;-0.58;84.25
49030;BME280;43337;52.070;4.508;2024-01-10T12:49:25;103163.38;;;-0.46;93.12
49030;BME280;43337;52.070;4.508;2024-01-10T12:51:52;103157.34;;;-0.47;78.96